createdAt,value
2018-07-05T00:02:19.796Z,20.00
2018-07-05T00:04:58.695Z,20.00
2018-07-05T00:07:38.428Z,20.00
2018-07-05T00:10:17.366Z,20.00
2018-07-05T00:12:56.421Z,20.00
2018-07-05T00:15:35.253Z,20.00
2018-07-05T00:18:14.050Z,20.00
2018-07-05T00:20:53.082Z,19.90
2018-07-05T00:23:32.110Z,19.80
2018-07-05T00:26:10.995Z,19.90
2018-07-05T00:28:49.826Z,20.00
2018-07-05T00:31:28.703Z,20.00
2018-07-05T00:34:08.231Z,19.90
2018-07-05T00:36:47.054Z,20.00
2018-07-05T00:39:25.796Z,19.90
2018-07-05T00:42:04.717Z,19.80
2018-07-05T00:44:43.505Z,19.80
2018-07-05T00:47:22.372Z,19.90
2018-07-05T00:50:01.190Z,19.80
2018-07-05T00:52:39.958Z,19.70
2018-07-05T00:55:18.790Z,19.70
2018-07-05T00:57:58.035Z,19.70
2018-07-05T01:00:37.437Z,19.60
2018-07-05T01:03:16.342Z,19.60
2018-07-05T01:05:55.106Z,19.60
2018-07-05T01:08:34.015Z,19.50
2018-07-05T01:11:12.813Z,19.50
2018-07-05T01:13:51.617Z,19.40
2018-07-05T01:16:30.440Z,19.40
2018-07-05T01:19:09.226Z,19.40
2018-07-05T01:21:48.277Z,19.30
2018-07-05T01:24:27.085Z,19.20
2018-07-05T01:27:06.766Z,19.20
2018-07-05T01:29:45.549Z,19.20
2018-07-05T01:32:24.333Z,19.20
2018-07-05T01:35:03.505Z,19.20
2018-07-05T01:37:42.274Z,19.20
2018-07-05T01:40:21.174Z,19.20
2018-07-05T01:43:00.185Z,19.20
2018-07-05T01:45:40.790Z,19.30
2018-07-05T01:48:19.805Z,19.30
2018-07-05T01:50:58.582Z,19.20
2018-07-05T01:53:38.458Z,19.10
2018-07-05T01:56:17.398Z,19.10
2018-07-05T01:58:56.190Z,19.10
2018-07-05T02:01:35.043Z,19.00
2018-07-05T02:04:13.774Z,19.00
2018-07-05T02:06:52.771Z,19.00
2018-07-05T02:09:31.549Z,19.00
2018-07-05T02:12:10.358Z,19.10
2018-07-05T02:14:49.310Z,19.10
2018-07-05T02:17:28.094Z,19.00
2018-07-05T02:20:08.061Z,19.00
2018-07-05T02:22:46.961Z,18.90
2018-07-05T02:25:25.726Z,18.80
2018-07-05T02:28:04.575Z,18.80
2018-07-05T02:30:43.946Z,18.90
2018-07-05T02:33:22.878Z,18.80
2018-07-05T02:36:01.659Z,18.80
2018-07-05T02:38:40.610Z,18.80
2018-07-05T02:41:19.517Z,18.80
2018-07-05T02:43:58.490Z,18.80
2018-07-05T02:46:37.257Z,18.70
2018-07-05T02:49:16.014Z,18.60
2018-07-05T02:51:54.815Z,18.60
2018-07-05T02:54:34.309Z,18.50
2018-07-05T02:57:14.129Z,18.50
2018-07-05T02:59:53.239Z,18.40
2018-07-05T03:02:33.030Z,18.40
2018-07-05T03:05:11.774Z,18.40
2018-07-05T03:07:50.695Z,18.30
2018-07-05T03:10:29.538Z,18.40
2018-07-05T03:13:08.328Z,18.40
2018-07-05T03:15:47.142Z,18.40
2018-07-05T03:18:25.992Z,18.40
2018-07-05T03:21:05.041Z,18.50
2018-07-05T03:23:45.122Z,18.50
2018-07-05T03:26:24.038Z,18.40
2018-07-05T03:29:02.861Z,18.40
2018-07-05T03:31:41.696Z,18.30
2018-07-05T03:34:20.741Z,18.50
2018-07-05T03:36:59.597Z,18.40
2018-07-05T03:39:38.451Z,18.30
2018-07-05T03:42:18.124Z,18.30
2018-07-05T03:44:56.932Z,18.30
2018-07-05T03:47:35.730Z,18.20
2018-07-05T03:50:14.558Z,18.10
2018-07-05T03:52:53.329Z,18.10
2018-07-05T03:55:32.280Z,18.00
2018-07-05T03:58:11.138Z,18.00
2018-07-05T04:00:49.992Z,18.00
2018-07-05T04:03:28.905Z,18.10
2018-07-05T04:06:07.657Z,18.00
2018-07-05T04:08:47.153Z,18.00
2018-07-05T04:11:25.965Z,18.00
2018-07-05T04:14:04.765Z,18.00
2018-07-05T04:16:43.621Z,18.10
2018-07-05T04:19:22.536Z,18.10
2018-07-05T04:22:01.561Z,18.00
2018-07-05T04:24:40.353Z,18.10
2018-07-05T04:27:19.117Z,18.10
2018-07-05T04:29:58.004Z,18.20
2018-07-05T04:32:37.039Z,18.20
2018-07-05T04:35:17.165Z,18.10
2018-07-05T04:37:56.041Z,18.10
2018-07-05T04:40:34.872Z,18.30
2018-07-05T04:43:13.818Z,18.40
2018-07-05T04:45:52.854Z,18.50
2018-07-05T04:48:31.781Z,18.50
2018-07-05T04:51:10.815Z,18.70
2018-07-05T04:53:49.685Z,18.70
2018-07-05T04:56:28.515Z,18.90
2018-07-05T04:59:07.325Z,19.10
2018-07-05T05:01:46.945Z,19.20
2018-07-05T05:04:25.945Z,19.30
2018-07-05T05:07:04.833Z,19.40
2018-07-05T05:09:43.579Z,19.60
2018-07-05T05:12:22.364Z,20.00
2018-07-05T05:15:01.178Z,20.20
2018-07-05T05:17:40.205Z,20.40
2018-07-05T05:20:19.013Z,20.50
2018-07-05T05:22:57.997Z,20.50
2018-07-05T05:25:36.730Z,20.70
2018-07-05T05:28:16.641Z,20.80
2018-07-05T05:30:55.625Z,20.70
2018-07-05T05:33:34.634Z,20.70
2018-07-05T05:36:13.495Z,20.70
2018-07-05T05:38:52.478Z,20.70
2018-07-05T05:41:31.310Z,20.70
2018-07-05T05:44:10.084Z,20.70
2018-07-05T05:46:48.921Z,20.90
2018-07-05T05:49:27.846Z,20.90
2018-07-05T05:52:06.666Z,20.90
2018-07-05T05:54:46.721Z,21.00
2018-07-05T05:57:25.572Z,21.00
2018-07-05T06:00:04.363Z,21.10
2018-07-05T06:02:43.112Z,21.30
2018-07-05T06:05:21.881Z,21.40
2018-07-05T06:08:00.699Z,21.30
2018-07-05T06:10:39.494Z,21.40
2018-07-05T06:13:18.416Z,21.50
2018-07-05T06:15:57.150Z,21.60
2018-07-05T06:18:35.956Z,21.80
2018-07-05T06:21:16.061Z,21.70
2018-07-05T06:23:55.014Z,21.80
2018-07-05T06:26:33.826Z,21.80
2018-07-05T06:29:12.670Z,21.70
2018-07-05T06:31:51.454Z,21.70
2018-07-05T06:34:30.393Z,21.70
2018-07-05T06:37:09.302Z,21.80
2018-07-05T06:39:48.179Z,21.90
2018-07-05T06:42:27.042Z,22.10
2018-07-05T06:45:06.092Z,22.00
2018-07-05T06:47:45.554Z,22.10
2018-07-05T06:50:24.495Z,22.10
2018-07-05T06:53:03.364Z,22.10
2018-07-05T06:55:42.217Z,22.10
2018-07-05T06:58:20.972Z,22.20
2018-07-05T07:00:59.857Z,22.30
2018-07-05T07:03:38.798Z,22.30
2018-07-05T07:06:17.681Z,22.20
2018-07-05T07:08:56.626Z,22.30
2018-07-05T07:11:35.469Z,22.20
2018-07-05T07:14:14.390Z,22.20
2018-07-05T07:16:53.353Z,22.20
2018-07-05T07:19:32.133Z,22.30
2018-07-05T07:22:11.169Z,22.60
2018-07-05T07:24:49.924Z,22.60
2018-07-05T07:27:28.657Z,22.50
2018-07-05T07:30:07.694Z,22.60
2018-07-05T07:32:46.638Z,22.70
2018-07-05T07:35:25.473Z,22.80
2018-07-05T07:38:04.345Z,22.90
2018-07-05T07:40:44.622Z,23.00
2018-07-05T07:43:11.128Z,23.10
2018-07-05T07:45:37.653Z,23.30
2018-07-05T07:48:04.170Z,23.50
2018-07-05T07:50:30.693Z,23.70
2018-07-05T07:52:57.206Z,23.60
2018-07-05T07:55:23.957Z,23.50
2018-07-05T07:57:50.500Z,23.70
2018-07-05T08:00:16.993Z,23.70
2018-07-05T08:02:43.527Z,23.60
2018-07-05T08:05:10.013Z,23.50
2018-07-05T08:07:36.530Z,23.60
2018-07-05T08:10:03.031Z,23.40
2018-07-05T08:12:29.517Z,23.40
2018-07-05T08:14:56.005Z,23.40
2018-07-05T08:17:22.556Z,23.40
2018-07-05T08:19:49.137Z,23.40
2018-07-05T08:22:15.637Z,23.30
2018-07-05T08:24:42.169Z,23.40
2018-07-05T08:27:08.875Z,23.50
2018-07-05T08:29:35.446Z,23.60
2018-07-05T08:32:01.947Z,23.70
2018-07-05T08:34:28.453Z,23.90
2018-07-05T08:36:54.954Z,23.80
2018-07-05T08:39:21.530Z,23.70
2018-07-05T08:41:48.106Z,23.80
2018-07-05T08:44:14.736Z,23.80
2018-07-05T08:46:41.582Z,24.00
2018-07-05T08:49:08.122Z,24.00
2018-07-05T08:51:34.609Z,24.00
2018-07-05T08:54:01.249Z,24.00
2018-07-05T08:56:27.750Z,24.30
2018-07-05T08:58:54.278Z,24.60
2018-07-05T09:01:20.987Z,24.90
2018-07-05T09:03:47.622Z,25.20
2018-07-05T09:06:14.118Z,25.40
2018-07-05T09:08:40.621Z,25.70
2018-07-05T09:11:07.138Z,25.80
2018-07-05T09:13:33.642Z,26.00
2018-07-05T09:16:00.166Z,26.10
2018-07-05T09:18:26.673Z,26.10
2018-07-05T09:20:53.202Z,26.00
2018-07-05T09:23:19.801Z,25.90
2018-07-05T09:25:46.261Z,26.10
2018-07-05T09:28:12.769Z,26.00
2018-07-05T09:30:39.293Z,26.00
2018-07-05T09:33:05.920Z,26.10
2018-07-05T09:35:32.470Z,26.10
2018-07-05T09:37:59.213Z,26.20
2018-07-05T09:40:25.733Z,26.50
2018-07-05T09:42:52.222Z,26.30
2018-07-05T09:45:18.735Z,26.30
2018-07-05T09:47:45.221Z,26.10
2018-07-05T09:50:11.758Z,25.90
2018-07-05T09:52:38.439Z,26.00
2018-07-05T09:55:10.964Z,25.80
2018-07-05T09:57:43.587Z,25.70
2018-07-05T10:00:16.422Z,25.80
2018-07-05T10:02:49.007Z,25.70
2018-07-05T10:05:21.643Z,25.80
2018-07-05T10:08:01.094Z,25.80
2018-07-05T10:10:33.597Z,25.80
2018-07-05T10:13:06.351Z,25.90
2018-07-05T10:15:39.018Z,25.90
2018-07-05T10:18:12.774Z,25.70
2018-07-05T10:20:45.549Z,25.90
2018-07-05T10:23:18.050Z,25.90
2018-07-05T10:25:50.692Z,25.80
2018-07-05T10:28:24.559Z,25.80
2018-07-05T10:31:09.910Z,25.80
2018-07-05T10:33:51.093Z,25.70
2018-07-05T10:36:23.841Z,25.70
2018-07-05T10:38:56.442Z,25.90
2018-07-05T10:41:44.385Z,26.00
2018-07-05T10:44:29.474Z,26.10
2018-07-05T10:47:14.529Z,25.90
2018-07-05T10:49:59.451Z,26.00
2018-07-05T10:52:44.493Z,26.10
2018-07-05T10:55:29.747Z,26.20
2018-07-05T10:58:14.960Z,26.10
2018-07-05T11:01:00.273Z,26.10
2018-07-05T11:03:45.297Z,26.00
2018-07-05T11:06:30.422Z,26.00
2018-07-05T11:09:15.948Z,26.30
2018-07-05T11:12:00.958Z,26.30
2018-07-05T11:14:46.283Z,26.50
2018-07-05T11:17:31.262Z,26.70
2018-07-05T11:20:16.217Z,27.00
2018-07-05T11:23:01.480Z,26.90
2018-07-05T11:25:46.365Z,27.30
2018-07-05T11:28:31.406Z,27.50
2018-07-05T11:31:16.471Z,27.80
2018-07-05T11:34:02.973Z,28.30
2018-07-05T11:36:48.496Z,28.40
2018-07-05T11:39:34.201Z,28.30
2018-07-05T11:42:20.056Z,28.50
2018-07-05T11:45:06.140Z,28.60
2018-07-05T11:47:51.328Z,28.70
2018-07-05T11:50:37.815Z,28.90
2018-07-05T11:53:23.519Z,29.20
2018-07-05T11:56:08.650Z,29.20
2018-07-05T11:58:56.840Z,29.10
2018-07-05T12:01:43.468Z,29.30
2018-07-05T12:04:28.638Z,29.20
2018-07-05T12:07:13.666Z,28.90
2018-07-05T12:09:59.436Z,28.70
2018-07-05T12:12:45.081Z,28.70
2018-07-05T12:15:30.405Z,28.80
2018-07-05T12:18:17.655Z,28.60
2018-07-05T12:21:02.815Z,28.40
2018-07-05T12:23:47.742Z,28.30
2018-07-05T12:26:32.724Z,28.50
2018-07-05T12:29:17.710Z,28.30
2018-07-05T12:32:02.637Z,28.00
2018-07-05T12:34:47.557Z,27.80
2018-07-05T12:37:32.545Z,27.70
2018-07-05T12:40:17.522Z,27.80
2018-07-05T12:43:02.569Z,27.90
2018-07-05T12:45:47.486Z,28.20
2018-07-05T12:48:32.722Z,28.60
2018-07-05T12:51:17.619Z,28.60
2018-07-05T12:54:02.859Z,28.90
2018-07-05T12:56:47.828Z,29.00
2018-07-05T12:59:32.974Z,29.10
2018-07-05T13:02:18.089Z,29.10
2018-07-05T13:05:02.971Z,29.30
2018-07-05T13:07:48.002Z,29.50
2018-07-05T13:10:33.182Z,28.90
2018-07-05T13:13:18.243Z,28.60
2018-07-05T13:16:04.339Z,28.80
2018-07-05T13:18:49.678Z,28.90
2018-07-05T13:21:34.740Z,28.80
2018-07-05T13:24:19.777Z,28.90
2018-07-05T13:27:04.813Z,28.80
2018-07-05T13:29:50.030Z,28.80
2018-07-05T13:32:35.150Z,28.70
2018-07-05T13:35:20.308Z,28.80
2018-07-05T13:38:05.228Z,29.20
2018-07-05T13:40:50.114Z,28.90
2018-07-05T13:43:35.045Z,28.90
2018-07-05T13:46:19.913Z,28.80
2018-07-05T13:49:04.778Z,29.10
2018-07-05T13:51:49.678Z,29.20
2018-07-05T13:54:34.594Z,29.60
2018-07-05T13:57:19.717Z,30.00
2018-07-05T14:00:04.581Z,30.30
2018-07-05T14:02:49.715Z,30.00
2018-07-05T14:05:34.689Z,29.60
2018-07-05T14:08:19.599Z,29.70
2018-07-05T14:11:04.499Z,29.60
2018-07-05T14:13:49.513Z,30.10
2018-07-05T14:16:34.386Z,30.90
2018-07-05T14:19:19.299Z,31.80
2018-07-05T14:22:04.243Z,32.50
2018-07-05T14:24:49.203Z,32.50
2018-07-05T14:27:34.320Z,32.20
2018-07-05T14:30:19.383Z,31.30
2018-07-05T14:33:04.325Z,30.30
2018-07-05T14:35:49.457Z,29.10
2018-07-05T14:38:34.538Z,28.70
2018-07-05T14:41:19.546Z,28.30
2018-07-05T14:44:04.653Z,28.10
2018-07-05T14:46:49.729Z,28.20
2018-07-05T14:49:34.760Z,28.20
2018-07-05T14:52:19.924Z,28.10
2018-07-05T14:55:04.870Z,27.90
2018-07-05T14:57:49.965Z,27.70
2018-07-05T15:00:34.857Z,27.50
2018-07-05T15:03:19.697Z,27.30
2018-07-05T15:06:04.591Z,27.10
2018-07-05T15:08:49.550Z,27.10
2018-07-05T15:11:36.534Z,27.20
2018-07-05T15:14:21.386Z,27.10
2018-07-05T15:17:06.557Z,27.00
2018-07-05T15:19:51.453Z,26.90
2018-07-05T15:22:36.378Z,26.90
2018-07-05T15:25:21.272Z,26.90
2018-07-05T15:28:06.185Z,26.60
2018-07-05T15:30:51.151Z,26.60
2018-07-05T15:33:36.028Z,26.70
2018-07-05T15:36:20.922Z,26.80
2018-07-05T15:39:05.889Z,26.90
2018-07-05T15:41:50.936Z,27.00
2018-07-05T15:44:36.089Z,27.00
2018-07-05T15:47:21.152Z,27.00
2018-07-05T15:50:06.673Z,27.10
2018-07-05T15:52:51.781Z,27.20
2018-07-05T15:55:36.766Z,27.30
2018-07-05T15:58:21.863Z,27.40
2018-07-05T16:01:11.279Z,27.60
2018-07-05T16:03:57.292Z,27.90
2018-07-05T16:06:42.328Z,28.40
2018-07-05T16:09:27.434Z,29.60
2018-07-05T16:12:12.529Z,31.00
2018-07-05T16:14:57.659Z,32.60
2018-07-05T16:17:42.725Z,33.30
2018-07-05T16:20:27.765Z,32.70
2018-07-05T16:23:12.787Z,32.40
2018-07-05T16:25:57.789Z,31.40
2018-07-05T16:28:43.601Z,30.60
2018-07-05T16:31:28.593Z,30.00
2018-07-05T16:34:14.441Z,30.00
2018-07-05T16:36:59.412Z,30.00
2018-07-05T16:39:44.826Z,29.60
2018-07-05T16:42:29.985Z,29.10
2018-07-05T16:45:14.948Z,28.30
2018-07-05T16:48:00.133Z,27.90
2018-07-05T16:50:45.101Z,27.70
2018-07-05T16:53:31.089Z,27.60
2018-07-05T16:56:16.316Z,27.60
2018-07-05T16:59:01.690Z,27.80
2018-07-05T17:01:46.817Z,27.70
2018-07-05T17:04:31.749Z,27.80
2018-07-05T17:07:16.839Z,27.70
2018-07-05T17:10:01.953Z,27.90
2018-07-05T17:12:47.061Z,28.30
2018-07-05T17:15:32.005Z,29.00
2018-07-05T17:18:17.245Z,29.90
2018-07-05T17:21:02.162Z,29.60
2018-07-05T17:23:47.065Z,29.30
2018-07-05T17:26:32.348Z,29.50
2018-07-05T17:29:17.235Z,29.40
2018-07-05T17:32:02.172Z,29.30
2018-07-05T17:34:47.622Z,28.80
2018-07-05T17:37:32.696Z,28.60
2018-07-05T17:40:18.730Z,28.60
2018-07-05T17:43:05.194Z,28.70
2018-07-05T17:45:50.217Z,28.60
2018-07-05T17:48:35.153Z,28.40
2018-07-05T17:54:47.865Z,28.00
2018-07-05T18:00:12.117Z,27.80
2018-07-05T18:02:57.281Z,27.70
2018-07-05T18:05:42.265Z,27.40
2018-07-05T18:08:27.241Z,27.50
2018-07-05T18:11:13.719Z,27.60
2018-07-05T18:14:00.269Z,27.60
2018-07-05T18:16:46.719Z,27.40
2018-07-05T18:19:34.565Z,27.50
2018-07-05T18:22:19.729Z,27.20
2018-07-05T18:25:04.681Z,27.00
2018-07-05T18:27:57.677Z,26.90
2018-07-05T18:30:45.330Z,26.90
2018-07-05T18:33:32.491Z,26.90
2018-07-05T18:36:18.757Z,26.70
2018-07-05T18:39:10.889Z,26.80
2018-07-05T18:41:55.861Z,26.80
2018-07-05T18:44:40.780Z,26.60
2018-07-05T18:47:25.781Z,26.50
2018-07-05T18:50:10.755Z,26.40
2018-07-05T18:52:55.725Z,26.20
2018-07-05T18:55:40.749Z,26.10
2018-07-05T18:58:25.768Z,25.90
2018-07-05T19:01:10.942Z,25.70
2018-07-05T19:03:56.153Z,25.60
2018-07-05T19:06:41.362Z,25.40
2018-07-05T19:09:26.559Z,25.20
2018-07-05T19:12:11.541Z,25.20
2018-07-05T19:14:56.552Z,25.10
2018-07-05T19:17:42.165Z,25.00
2018-07-05T19:20:27.499Z,24.80
2018-07-05T19:23:12.524Z,24.70
2018-07-05T19:25:57.455Z,24.60
2018-07-05T19:28:42.289Z,24.60
2018-07-05T19:31:27.456Z,24.50
2018-07-05T19:34:12.405Z,24.40
2018-07-05T19:36:58.050Z,24.30
2018-07-05T19:39:43.145Z,24.20
2018-07-05T19:42:28.061Z,24.10
2018-07-05T19:45:13.256Z,24.00
2018-07-05T19:47:58.463Z,23.90
2018-07-05T19:50:43.540Z,23.80
2018-07-05T19:53:28.905Z,23.80
2018-07-05T19:56:14.034Z,23.60
2018-07-05T19:58:59.017Z,23.50
2018-07-05T20:01:44.240Z,23.50
2018-07-05T20:04:29.225Z,23.40
2018-07-05T20:07:14.241Z,23.40
2018-07-05T20:09:59.242Z,23.20
2018-07-05T20:12:44.461Z,23.00
2018-07-05T20:15:32.636Z,23.00
2018-07-05T20:18:17.714Z,22.90
2018-07-05T20:21:02.712Z,22.80
2018-07-05T20:23:47.733Z,22.70
2018-07-05T20:26:32.953Z,22.70
2018-07-05T20:29:22.384Z,22.70
2018-07-05T20:32:10.029Z,22.70
2018-07-05T20:34:56.169Z,22.70
2018-07-05T20:37:45.807Z,22.60
2018-07-05T20:40:31.002Z,22.70
2018-07-05T20:43:16.144Z,22.60
2018-07-05T20:46:01.188Z,22.40
2018-07-05T20:48:47.309Z,22.30
2018-07-05T20:51:32.565Z,22.30
2018-07-05T20:54:17.846Z,22.30
2018-07-05T20:57:03.229Z,22.10
2018-07-05T20:59:49.130Z,22.10
2018-07-05T21:02:34.116Z,22.00
2018-07-05T21:05:19.084Z,22.10
2018-07-05T21:08:04.438Z,22.00
2018-07-05T21:10:49.416Z,22.00
2018-07-05T21:13:34.525Z,22.00
2018-07-05T21:16:19.718Z,21.90
2018-07-05T21:19:04.952Z,21.90
2018-07-05T21:21:50.037Z,21.80
2018-07-05T21:24:36.007Z,21.80
2018-07-05T21:27:21.108Z,21.70
2018-07-05T21:30:06.049Z,21.60
2018-07-05T21:32:57.680Z,21.50
2018-07-05T21:35:43.830Z,21.50
2018-07-05T21:38:29.401Z,21.40
2018-07-05T21:41:17.735Z,21.40
2018-07-05T21:44:03.017Z,21.30
2018-07-05T21:46:48.113Z,21.40
2018-07-05T21:49:33.037Z,21.40
2018-07-05T21:52:17.969Z,21.30
2018-07-05T21:55:02.860Z,21.30
2018-07-05T21:57:48.498Z,21.40
2018-07-05T22:00:33.537Z,21.30
2018-07-05T22:03:18.450Z,21.20
2018-07-05T22:06:03.373Z,21.20
2018-07-05T22:08:48.999Z,21.20
2018-07-05T22:11:34.711Z,21.10
2018-07-05T22:14:19.967Z,21.00
2018-07-05T22:17:10.749Z,20.90
2018-07-05T22:20:01.382Z,20.80
2018-07-05T22:22:53.046Z,20.80
2018-07-05T22:25:43.911Z,20.80
2018-07-05T22:28:34.601Z,20.70
2018-07-05T22:31:25.790Z,20.50
2018-07-05T22:34:11.488Z,20.40
2018-07-05T22:36:57.519Z,20.30
2018-07-05T22:39:43.546Z,20.20
2018-07-05T22:42:32.738Z,20.10
2018-07-05T22:45:18.680Z,20.10
2018-07-05T22:48:03.955Z,20.00
2018-07-05T22:50:49.169Z,19.90
2018-07-05T22:53:34.271Z,19.80
2018-07-05T22:56:19.245Z,19.80
2018-07-05T22:59:14.665Z,19.80
2018-07-05T23:02:05.470Z,19.70
2018-07-05T23:04:50.642Z,19.60
2018-07-05T23:07:35.590Z,19.60
2018-07-05T23:10:20.585Z,19.50
2018-07-05T23:13:05.502Z,19.50
2018-07-05T23:15:50.470Z,19.30
2018-07-05T23:18:35.406Z,19.30
2018-07-05T23:21:20.534Z,19.30
2018-07-05T23:24:05.630Z,19.20
2018-07-05T23:26:50.673Z,19.10
2018-07-05T23:29:35.765Z,19.00
2018-07-05T23:32:20.661Z,19.00
2018-07-05T23:35:05.622Z,19.00
2018-07-05T23:37:50.574Z,18.90
2018-07-05T23:40:35.541Z,19.00
2018-07-05T23:43:20.580Z,19.00
2018-07-05T23:46:05.688Z,19.00
2018-07-05T23:48:51.545Z,19.00
2018-07-05T23:51:36.597Z,18.90
2018-07-05T23:54:21.673Z,18.90
2018-07-05T23:57:06.782Z,18.90
2018-07-05T23:59:51.809Z,19.00
